createdAt,value
2024-02-23T00:01:17.266Z,103142.88
2024-02-23T00:06:20.188Z,103148.00
2024-02-23T00:11:23.466Z,103137.63
2024-02-23T00:16:30.806Z,103152.94
2024-02-23T00:21:33.677Z,103150.97
2024-02-23T00:26:36.268Z,103155.41
2024-02-23T00:31:42.436Z,103153.03
2024-02-23T00:36:46.337Z,103157.16
2024-02-23T00:41:49.149Z,103155.88
2024-02-23T00:46:53.092Z,103155.56
2024-02-23T00:51:57.084Z,103153.72
2024-02-23T00:56:59.951Z,103136.94
2024-02-23T01:02:03.393Z,103154.81
2024-02-23T01:07:06.373Z,103157.81
2024-02-23T01:12:10.405Z,103156.66
2024-02-23T01:17:14.940Z,103156.72
2024-02-23T01:22:18.628Z,103153.91
2024-02-23T01:27:25.122Z,103163.09
2024-02-23T01:32:30.682Z,103167.66
2024-02-23T01:37:34.168Z,103166.00
2024-02-23T01:42:39.604Z,103171.28
2024-02-23T01:47:44.893Z,103177.78
2024-02-23T01:52:48.245Z,103167.47
2024-02-23T01:57:51.696Z,103179.66
2024-02-23T02:02:56.564Z,103177.38
2024-02-23T02:08:02.413Z,103192.53
2024-02-23T02:13:07.213Z,103193.91
2024-02-23T02:18:11.394Z,103181.56
2024-02-23T02:23:15.097Z,103193.78
2024-02-23T02:28:19.039Z,103188.41
2024-02-23T02:33:23.470Z,103192.69
2024-02-23T02:38:26.405Z,103186.44
2024-02-23T02:43:29.957Z,103180.44
2024-02-23T02:48:38.167Z,103193.06
2024-02-23T02:53:41.347Z,103193.88
2024-02-23T02:58:45.560Z,103202.81
2024-02-23T03:03:49.159Z,103202.34
2024-02-23T03:08:51.955Z,103206.97
2024-02-23T03:13:55.449Z,103197.34
2024-02-23T03:19:04.490Z,103177.69
2024-02-23T03:24:07.419Z,103199.25
2024-02-23T03:29:12.871Z,103191.72
2024-02-23T03:34:16.678Z,103189.06
2024-02-23T03:39:20.034Z,103180.38
2024-02-23T03:44:22.985Z,103187.97
2024-02-23T03:49:27.603Z,103187.66
2024-02-23T03:54:30.863Z,103181.03
2024-02-23T03:59:34.881Z,103171.91
2024-02-23T04:04:39.805Z,103173.06
2024-02-23T04:09:42.922Z,103165.41
2024-02-23T04:14:46.985Z,103181.09
2024-02-23T04:19:49.707Z,103174.63
2024-02-23T04:24:52.518Z,103170.63
2024-02-23T04:29:56.755Z,103174.78
2024-02-23T04:35:00.202Z,103178.34
2024-02-23T04:40:03.952Z,103180.00
2024-02-23T04:45:09.160Z,103172.22
2024-02-23T04:50:11.943Z,103164.28
2024-02-23T04:55:16.049Z,103156.22
2024-02-23T05:00:21.178Z,103153.94
2024-02-23T05:05:24.267Z,103143.41
2024-02-23T05:10:27.013Z,103154.53
2024-02-23T05:15:31.861Z,103155.44
2024-02-23T05:20:35.119Z,103145.59
2024-02-23T05:25:38.005Z,103160.75
2024-02-23T05:30:42.407Z,103160.63
2024-02-23T05:35:47.194Z,103155.13
2024-02-23T05:40:50.241Z,103143.88
2024-02-23T05:45:59.035Z,103155.38
2024-02-23T05:51:02.135Z,103150.34
2024-02-23T05:56:05.891Z,103144.19
2024-02-23T06:01:10.381Z,103142.00
2024-02-23T06:06:13.389Z,103145.06
2024-02-23T06:11:17.059Z,103144.06
2024-02-23T06:16:21.473Z,103132.69
2024-02-23T06:21:24.384Z,103128.66
2024-02-23T06:26:27.198Z,103121.59
2024-02-23T06:31:32.682Z,103122.31
2024-02-23T06:36:35.746Z,103115.38
2024-02-23T06:41:43.896Z,103112.31
2024-02-23T06:46:47.373Z,103111.22
2024-02-23T06:51:50.259Z,103117.13
2024-02-23T06:56:54.085Z,103102.59
2024-02-23T07:01:58.804Z,103102.09
2024-02-23T07:07:08.098Z,103105.31
2024-02-23T07:12:13.116Z,103105.63
2024-02-23T07:17:21.056Z,103097.69
2024-02-23T07:22:24.788Z,103086.22
2024-02-23T07:27:27.968Z,103080.22
2024-02-23T07:32:32.928Z,103078.84
2024-02-23T07:37:36.293Z,103067.44
2024-02-23T07:42:39.228Z,103078.59
2024-02-23T07:47:44.148Z,103063.47
2024-02-23T07:52:47.611Z,103070.00
2024-02-23T07:57:51.018Z,103064.94
2024-02-23T08:02:58.624Z,103061.41
2024-02-23T08:08:02.619Z,103059.09
2024-02-23T08:13:08.377Z,103057.72
2024-02-23T08:18:12.028Z,103046.59
2024-02-23T08:23:17.082Z,103041.22
2024-02-23T08:28:20.227Z,103036.88
2024-02-23T08:33:24.942Z,103033.41
2024-02-23T08:38:28.473Z,103040.38
2024-02-23T08:43:31.494Z,103031.75
2024-02-23T08:48:36.058Z,103030.09
2024-02-23T08:53:39.548Z,103033.84
2024-02-23T08:58:42.886Z,103033.88
2024-02-23T09:03:47.110Z,103031.31
2024-02-23T09:08:50.075Z,103030.16
2024-02-23T09:13:53.420Z,103009.66
2024-02-23T09:18:57.949Z,103003.06
2024-02-23T09:24:01.258Z,103002.81
2024-02-23T09:29:13.385Z,103002.44
2024-02-23T09:34:18.039Z,103001.13
2024-02-23T09:39:28.429Z,102997.78
2024-02-23T09:44:36.104Z,103001.53
2024-02-23T09:49:42.753Z,102991.47
2024-02-23T09:54:46.062Z,102991.31
2024-02-23T09:59:51.480Z,102989.63
2024-02-23T10:04:55.937Z,102982.84
2024-02-23T10:10:00.630Z,102980.78
2024-02-23T10:15:06.063Z,102973.66
2024-02-23T10:20:09.359Z,102974.28
2024-02-23T10:25:12.274Z,102971.72
2024-02-23T10:30:18.991Z,102975.16
2024-02-23T10:35:23.432Z,102973.88
2024-02-23T10:40:28.322Z,102967.16
2024-02-23T10:45:32.964Z,102958.72
2024-02-23T10:50:36.578Z,102948.25
2024-02-23T10:55:40.131Z,102947.50
2024-02-23T11:00:44.437Z,102948.47
2024-02-23T11:05:51.008Z,102943.97
2024-02-23T11:10:54.377Z,102950.53
2024-02-23T11:16:04.788Z,102937.66
2024-02-23T11:21:11.361Z,102938.69
2024-02-23T11:26:14.907Z,102926.41
2024-02-23T11:31:22.052Z,102945.59
2024-02-23T11:36:31.873Z,102933.75
2024-02-23T11:41:34.795Z,102936.28
2024-02-23T11:46:38.819Z,102933.56
2024-02-23T11:51:43.599Z,102928.28
2024-02-23T11:56:49.178Z,102917.16
2024-02-23T12:01:52.714Z,102925.66
2024-02-23T12:06:57.277Z,102913.31
2024-02-23T12:12:00.643Z,102926.31
2024-02-23T12:17:05.439Z,102914.91
2024-02-23T12:22:09.323Z,102923.81
2024-02-23T12:27:13.071Z,102924.91
2024-02-23T12:32:17.445Z,102922.16
2024-02-23T12:37:21.660Z,102919.25
2024-02-23T12:42:25.120Z,102920.25
2024-02-23T12:47:29.317Z,102921.03
2024-02-23T12:52:32.741Z,102914.38
2024-02-23T12:57:36.155Z,102913.44
2024-02-23T13:02:40.355Z,102909.97
2024-02-23T13:07:43.804Z,102922.06
2024-02-23T13:12:46.782Z,102909.13
2024-02-23T13:17:51.030Z,102916.56
2024-02-23T13:22:54.806Z,102912.63
2024-02-23T13:28:01.300Z,102911.03
2024-02-23T13:33:07.168Z,102912.81
2024-02-23T13:38:10.611Z,102906.41
2024-02-23T13:43:14.354Z,102895.22
2024-02-23T13:48:20.763Z,102894.56
2024-02-23T13:53:24.389Z,102894.03
2024-02-23T13:58:29.988Z,102884.38
2024-02-23T14:03:33.830Z,102888.06
2024-02-23T14:08:38.900Z,102875.38
2024-02-23T14:13:42.249Z,102878.38
2024-02-23T14:18:46.383Z,102884.59
2024-02-23T14:23:49.475Z,102877.03
2024-02-23T14:28:52.559Z,102871.06
2024-02-23T14:33:57.250Z,102879.22
2024-02-23T14:39:00.317Z,102867.88
2024-02-23T14:44:03.420Z,102866.97
2024-02-23T14:49:07.320Z,102849.56
2024-02-23T14:54:10.568Z,102857.72
2024-02-23T14:59:13.665Z,102856.19
2024-02-23T15:04:19.026Z,102858.25
2024-02-23T15:09:22.067Z,102856.09
2024-02-23T15:14:25.606Z,102855.53
2024-02-23T15:19:29.363Z,102851.22
2024-02-23T15:24:33.952Z,102836.63
2024-02-23T15:29:37.271Z,102832.09
2024-02-23T15:34:43.105Z,102834.41
2024-02-23T15:39:48.968Z,102836.56
2024-02-23T15:44:53.071Z,102834.56
2024-02-23T15:50:16.665Z,102828.03
2024-02-23T15:55:19.664Z,102831.88
2024-02-23T16:00:23.724Z,102823.56
2024-02-23T16:05:27.238Z,102820.69
2024-02-23T16:10:31.018Z,102817.00
2024-02-23T16:15:34.725Z,102827.25
2024-02-23T16:20:43.973Z,102819.25
2024-02-23T16:25:47.203Z,102813.72
2024-02-23T16:30:53.033Z,102811.50
2024-02-23T16:36:00.847Z,102810.38
2024-02-23T16:41:04.422Z,102802.59
2024-02-23T16:46:08.453Z,102800.56
2024-02-23T16:51:11.650Z,102796.59
2024-02-23T16:56:14.637Z,102789.31
2024-02-23T17:01:19.057Z,102751.94
2024-02-23T17:06:22.060Z,102778.41
2024-02-23T17:11:26.017Z,102773.13
2024-02-23T17:16:30.323Z,102766.78
2024-02-23T17:21:33.262Z,102769.63
2024-02-23T17:26:36.333Z,102758.78
2024-02-23T17:31:40.287Z,102753.91
2024-02-23T17:36:44.913Z,102742.56
2024-02-23T17:41:47.941Z,102742.91
2024-02-23T17:46:51.286Z,102730.94
2024-02-23T17:51:57.438Z,102723.66
2024-02-23T17:57:00.369Z,102721.34
2024-02-23T18:02:03.602Z,102711.16
2024-02-23T18:07:06.774Z,102707.25
2024-02-23T18:12:10.000Z,102713.66
2024-02-23T18:17:13.700Z,102701.81
2024-02-23T18:22:17.281Z,102691.63
2024-02-23T18:27:21.238Z,102687.81
2024-02-23T18:32:24.461Z,102683.88
2024-02-23T18:37:27.474Z,102682.13
2024-02-23T18:42:30.300Z,102669.22
2024-02-23T18:47:33.945Z,102670.81
2024-02-23T18:52:37.820Z,102673.28
2024-02-23T18:57:41.113Z,102660.84
2024-02-23T19:02:48.348Z,102660.28
2024-02-23T19:07:51.311Z,102648.47
2024-02-23T19:12:54.412Z,102647.69
2024-02-23T19:17:58.197Z,102629.56
2024-02-23T19:23:02.025Z,102644.66
2024-02-23T19:28:05.704Z,102642.22
2024-02-23T19:33:09.602Z,102649.81
2024-02-23T19:38:12.728Z,102645.13
2024-02-23T19:43:15.712Z,102631.00
2024-02-23T19:48:19.919Z,102634.16
2024-02-23T19:53:22.887Z,102630.72
2024-02-23T19:58:25.928Z,102639.00
2024-02-23T20:03:29.428Z,102631.94
2024-02-23T20:08:32.833Z,102630.63
2024-02-23T20:13:36.818Z,102631.47
2024-02-23T20:18:40.244Z,102630.56
2024-02-23T20:23:43.414Z,102619.84
2024-02-23T20:28:46.451Z,102605.91
2024-02-23T20:33:50.474Z,102605.63
2024-02-23T20:38:53.520Z,102605.63
2024-02-23T20:43:56.534Z,102595.03
2024-02-23T20:49:01.782Z,102582.25
2024-02-23T20:54:05.574Z,102584.69
2024-02-23T20:59:08.644Z,102577.97
2024-02-23T21:04:12.545Z,102574.50
2024-02-23T21:09:17.551Z,102572.38
2024-02-23T21:14:20.395Z,102570.66
2024-02-23T21:19:23.672Z,102568.94
2024-02-23T21:24:26.678Z,102560.66
2024-02-23T21:29:30.074Z,102559.56
2024-02-23T21:34:33.408Z,102565.72
2024-02-23T21:39:37.609Z,102569.50
2024-02-23T21:44:41.221Z,102560.03
2024-02-23T21:49:45.232Z,102557.13
2024-02-23T21:54:48.734Z,102550.59
2024-02-23T21:59:56.219Z,102545.38
2024-02-23T22:04:59.313Z,102545.91
2024-02-23T22:10:02.087Z,102545.19
2024-02-23T22:15:06.332Z,102529.97
2024-02-23T22:20:09.745Z,102546.09
2024-02-23T22:25:15.058Z,102532.59
2024-02-23T22:30:18.679Z,102523.91
2024-02-23T22:35:24.723Z,102521.63
2024-02-23T22:40:27.928Z,102520.16
2024-02-23T22:45:32.135Z,102512.38
2024-02-23T22:50:35.086Z,102512.78
2024-02-23T22:55:37.986Z,102505.25
2024-02-23T23:00:43.070Z,102512.81
2024-02-23T23:05:46.415Z,102514.06
2024-02-23T23:10:50.188Z,102511.13
2024-02-23T23:15:53.365Z,102506.88
2024-02-23T23:20:56.223Z,102507.16
2024-02-23T23:25:59.155Z,102497.56
2024-02-23T23:31:02.320Z,102512.38
2024-02-23T23:36:05.675Z,102506.03
2024-02-23T23:41:08.756Z,102475.91
2024-02-23T23:46:12.087Z,102493.63
2024-02-23T23:51:15.358Z,102477.06
2024-02-23T23:56:18.864Z,102486.97
